createdAt,value
2018-01-05T00:01:20.887Z,92.00
2018-01-05T00:03:48.383Z,92.30
2018-01-05T00:06:15.870Z,92.40
2018-01-05T00:08:44.135Z,92.50
2018-01-05T00:11:11.640Z,92.50
2018-01-05T00:13:39.142Z,92.50
2018-01-05T00:16:06.638Z,92.50
2018-01-05T00:18:34.135Z,92.40
2018-01-05T00:21:01.631Z,92.30
2018-01-05T00:23:29.119Z,92.10
2018-01-05T00:25:56.762Z,91.90
2018-01-05T00:28:25.023Z,91.70
2018-01-05T00:30:52.524Z,91.60
2018-01-05T00:33:20.014Z,91.60
2018-01-05T00:35:47.531Z,91.60
2018-01-05T00:38:15.023Z,91.40
2018-01-05T00:40:42.511Z,91.40
2018-01-05T00:43:09.998Z,91.30
2018-01-05T00:45:37.486Z,91.30
2018-01-05T00:48:04.979Z,91.20
2018-01-05T00:50:32.487Z,91.20
2018-01-05T00:53:00.003Z,91.10
2018-01-05T00:55:27.499Z,91.00
2018-01-05T00:57:54.996Z,91.10
2018-01-05T01:00:22.490Z,91.20
2018-01-05T01:02:50.766Z,91.60
2018-01-05T01:05:19.035Z,91.60
2018-01-05T01:07:46.527Z,91.60
2018-01-05T01:10:14.051Z,91.40
2018-01-05T01:12:42.322Z,91.50
2018-01-05T01:15:10.602Z,91.70
2018-01-05T01:17:38.891Z,91.80
2018-01-05T01:20:07.155Z,91.80
2018-01-05T01:22:34.651Z,91.80
2018-01-05T01:25:02.152Z,91.80
2018-01-05T01:27:29.751Z,91.70
2018-01-05T01:29:58.028Z,91.60
2018-01-05T01:32:26.286Z,91.50
2018-01-05T01:34:54.548Z,91.70
2018-01-05T01:37:22.050Z,91.30
2018-01-05T01:39:49.559Z,91.70
2018-01-05T01:42:17.068Z,91.40
2018-01-05T01:44:44.597Z,91.30
2018-01-05T01:47:12.879Z,91.20
2018-01-05T01:49:41.879Z,91.20
2018-01-05T01:52:10.138Z,91.20
2018-01-05T01:54:37.658Z,91.20
2018-01-05T01:57:05.180Z,91.10
2018-01-05T01:59:32.679Z,91.30
2018-01-05T02:02:00.178Z,91.40
2018-01-05T02:04:28.447Z,92.10
2018-01-05T02:06:55.959Z,92.10
2018-01-05T02:09:23.456Z,92.90
2018-01-05T02:11:50.956Z,93.30
2018-01-05T02:14:19.411Z,94.00
2018-01-05T02:16:47.682Z,94.20
2018-01-05T02:19:15.938Z,94.80
2018-01-05T02:21:43.430Z,94.80
2018-01-05T02:24:11.700Z,95.40
2018-01-05T02:26:39.955Z,95.40
2018-01-05T02:29:07.463Z,95.30
2018-01-05T02:31:34.959Z,95.30
2018-01-05T02:34:02.453Z,95.40
2018-01-05T02:36:30.714Z,95.10
2018-01-05T02:38:58.206Z,95.00
2018-01-05T02:41:25.700Z,94.90
2018-01-05T02:43:53.191Z,95.00
2018-01-05T02:46:20.703Z,95.40
2018-01-05T02:48:48.191Z,95.30
2018-01-05T02:51:15.711Z,94.60
2018-01-05T02:53:43.199Z,94.50
2018-01-05T02:56:10.691Z,94.20
2018-01-05T02:58:39.162Z,94.40
2018-01-05T03:01:06.651Z,94.30
2018-01-05T03:03:34.162Z,94.60
2018-01-05T03:06:01.654Z,94.80
2018-01-05T03:08:29.911Z,95.10
2018-01-05T03:10:57.550Z,94.80
2018-01-05T03:13:25.047Z,95.00
2018-01-05T03:15:53.302Z,94.60
2018-01-05T03:18:20.815Z,94.60
2018-01-05T03:20:48.303Z,94.30
2018-01-05T03:23:15.807Z,94.10
2018-01-05T03:25:43.294Z,93.80
2018-01-05T03:28:10.789Z,93.80
2018-01-05T03:30:38.280Z,93.60
2018-01-05T03:33:05.779Z,93.80
2018-01-05T03:35:33.270Z,93.90
2018-01-05T03:38:00.769Z,93.80
2018-01-05T03:40:28.259Z,93.80
2018-01-05T03:42:55.770Z,93.90
2018-01-05T03:45:23.282Z,93.70
2018-01-05T03:47:50.778Z,93.10
2018-01-05T03:50:19.033Z,92.70
2018-01-05T03:52:52.999Z,92.70
2018-01-05T03:55:20.495Z,92.90
2018-01-05T03:57:48.001Z,92.40
2018-01-05T04:00:15.510Z,92.40
2018-01-05T04:02:43.003Z,92.20
2018-01-05T04:05:10.495Z,92.10
2018-01-05T04:07:37.995Z,91.90
2018-01-05T04:10:05.495Z,91.80
2018-01-05T04:12:32.992Z,91.60
2018-01-05T04:15:00.497Z,91.20
2018-01-05T04:17:27.995Z,91.20
2018-01-05T04:19:55.495Z,90.90
2018-01-05T04:22:23.757Z,90.60
2018-01-05T04:24:51.270Z,90.60
2018-01-05T04:27:18.775Z,90.40
2018-01-05T04:29:46.283Z,90.30
2018-01-05T04:32:13.779Z,90.00
2018-01-05T04:34:41.287Z,90.00
2018-01-05T04:37:08.785Z,90.00
2018-01-05T04:39:36.282Z,90.00
2018-01-05T04:42:04.544Z,89.60
2018-01-05T04:44:32.056Z,89.50
2018-01-05T04:46:59.554Z,89.60
2018-01-05T04:49:27.047Z,89.30
2018-01-05T04:51:54.547Z,89.10
2018-01-05T04:54:22.038Z,89.00
2018-01-05T04:56:49.548Z,88.30
2018-01-05T04:59:17.055Z,87.90
2018-01-05T05:01:44.568Z,87.50
2018-01-05T05:04:12.075Z,87.40
2018-01-05T05:06:40.342Z,86.00
2018-01-05T05:09:07.851Z,85.90
2018-01-05T05:11:35.351Z,84.80
2018-01-05T05:14:02.856Z,85.20
2018-01-05T05:16:30.350Z,85.20
2018-01-05T05:18:57.839Z,85.00
2018-01-05T05:21:26.114Z,85.10
2018-01-05T05:23:54.369Z,85.40
2018-01-05T05:26:21.879Z,85.30
2018-01-05T05:28:49.370Z,85.00
2018-01-05T05:31:16.862Z,84.50
2018-01-05T05:33:44.358Z,84.10
2018-01-05T05:36:11.917Z,83.70
2018-01-05T05:38:39.410Z,84.10
2018-01-05T05:41:06.895Z,83.00
2018-01-05T05:43:34.393Z,83.40
2018-01-05T05:46:01.887Z,82.60
2018-01-05T05:48:29.378Z,82.60
2018-01-05T05:50:57.858Z,82.20
2018-01-05T05:53:26.130Z,82.40
2018-01-05T05:55:54.387Z,82.50
2018-01-05T05:58:21.897Z,82.40
2018-01-05T06:00:50.155Z,82.30
2018-01-05T06:03:18.410Z,82.10
2018-01-05T06:05:45.917Z,82.10
2018-01-05T06:08:13.413Z,82.10
2018-01-05T06:10:40.918Z,82.10
2018-01-05T06:13:08.415Z,82.40
2018-01-05T06:15:35.907Z,82.20
2018-01-05T06:18:04.415Z,81.80
2018-01-05T06:20:31.912Z,81.80
2018-01-05T06:22:59.419Z,81.80
2018-01-05T06:25:27.675Z,81.90
2018-01-05T06:27:55.199Z,81.90
2018-01-05T06:30:22.720Z,82.20
2018-01-05T06:32:50.215Z,82.10
2018-01-05T06:35:17.699Z,81.90
2018-01-05T06:37:45.187Z,81.60
2018-01-05T06:40:13.458Z,80.40
2018-01-05T06:42:41.838Z,80.60
2018-01-05T06:45:10.096Z,80.70
2018-01-05T06:47:37.592Z,80.70
2018-01-05T06:50:05.084Z,80.50
2018-01-05T06:52:32.604Z,80.40
2018-01-05T06:55:00.107Z,80.90
2018-01-05T06:57:27.602Z,79.40
2018-01-05T06:59:55.863Z,78.80
2018-01-05T07:02:23.351Z,78.80
2018-01-05T07:04:50.880Z,78.40
2018-01-05T07:07:18.380Z,78.20
2018-01-05T07:09:45.912Z,78.40
2018-01-05T07:12:14.396Z,77.80
2018-01-05T07:14:42.659Z,78.10
2018-01-05T07:17:10.931Z,78.20
2018-01-05T07:19:38.430Z,78.10
2018-01-05T07:22:05.928Z,78.60
2018-01-05T07:24:33.415Z,78.50
2018-01-05T07:27:01.667Z,79.20
2018-01-05T07:29:29.180Z,79.30
2018-01-05T07:31:56.675Z,79.50
2018-01-05T07:34:24.166Z,79.00
2018-01-05T07:36:52.445Z,79.60
2018-01-05T07:39:20.695Z,79.70
2018-01-05T07:41:48.190Z,79.70
2018-01-05T07:44:16.469Z,79.90
2018-01-05T07:46:44.718Z,79.90
2018-01-05T07:49:12.244Z,79.90
2018-01-05T07:51:39.742Z,81.30
2018-01-05T07:54:07.998Z,80.10
2018-01-05T07:56:35.555Z,80.00
2018-01-05T07:59:03.859Z,79.90
2018-01-05T08:01:32.111Z,79.90
2018-01-05T08:03:59.659Z,79.80
2018-01-05T08:06:27.151Z,79.80
2018-01-05T08:08:55.418Z,79.50
2018-01-05T08:11:22.927Z,79.50
2018-01-05T08:13:50.435Z,79.70
2018-01-05T08:16:17.921Z,79.60
2018-01-05T08:18:45.418Z,79.70
2018-01-05T08:21:12.923Z,79.70
2018-01-05T08:23:41.183Z,78.80
2018-01-05T08:26:08.671Z,78.60
2018-01-05T08:28:36.163Z,78.30
2018-01-05T08:31:03.659Z,78.60
2018-01-05T08:33:31.163Z,78.40
2018-01-05T08:35:58.655Z,78.60
2018-01-05T08:38:26.143Z,78.30
2018-01-05T08:40:54.423Z,77.60
2018-01-05T08:43:22.899Z,77.20
2018-01-05T08:45:51.155Z,76.50
2018-01-05T08:48:18.654Z,76.40
2018-01-05T08:50:46.158Z,75.70
2018-01-05T08:53:13.650Z,75.20
2018-01-05T08:55:41.931Z,74.20
2018-01-05T08:58:10.204Z,73.90
2018-01-05T09:00:38.456Z,73.30
2018-01-05T09:03:06.074Z,73.20
2018-01-05T09:05:33.571Z,73.60
2018-01-05T09:08:01.224Z,73.10
2018-01-05T09:10:28.726Z,73.70
2018-01-05T09:12:56.219Z,73.10
2018-01-05T09:15:23.710Z,71.80
2018-01-05T09:17:51.225Z,71.90
2018-01-05T09:20:18.724Z,71.90
2018-01-05T09:22:46.219Z,70.60
2018-01-05T09:25:13.724Z,71.00
2018-01-05T09:27:41.431Z,70.70
2018-01-05T09:30:09.691Z,71.80
2018-01-05T09:32:37.970Z,71.20
2018-01-05T09:35:06.243Z,70.10
2018-01-05T09:37:33.745Z,70.00
2018-01-05T09:40:01.312Z,69.30
2018-01-05T09:42:29.544Z,67.70
2018-01-05T09:44:57.811Z,67.20
2018-01-05T09:47:25.331Z,67.10
2018-01-05T09:49:52.843Z,66.10
2018-01-05T09:52:21.151Z,66.40
2018-01-05T09:54:48.642Z,66.40
2018-01-05T09:57:16.143Z,66.50
2018-01-05T09:59:43.647Z,66.50
2018-01-05T10:02:11.176Z,66.30
2018-01-05T10:04:38.774Z,66.10
2018-01-05T10:07:06.290Z,66.50
2018-01-05T10:09:33.815Z,65.70
2018-01-05T10:12:02.084Z,66.50
2018-01-05T10:14:29.767Z,66.40
2018-01-05T10:16:58.051Z,66.60
2018-01-05T10:19:26.383Z,66.80
2018-01-05T10:21:53.878Z,66.80
2018-01-05T10:24:22.151Z,67.00
2018-01-05T10:26:50.437Z,67.20
2018-01-05T10:29:18.720Z,67.40
2018-01-05T10:31:46.228Z,67.30
2018-01-05T10:34:13.735Z,67.80
2018-01-05T10:36:41.286Z,67.70
2018-01-05T10:39:08.777Z,67.90
2018-01-05T10:41:36.404Z,68.10
2018-01-05T10:44:04.675Z,67.70
2018-01-05T10:46:32.949Z,67.50
2018-01-05T10:49:01.215Z,68.20
2018-01-05T10:51:28.725Z,67.40
2018-01-05T10:53:56.227Z,67.70
2018-01-05T10:56:23.737Z,67.60
2018-01-05T10:58:51.255Z,67.40
2018-01-05T11:01:19.523Z,68.80
2018-01-05T11:03:47.019Z,68.00
2018-01-05T11:06:14.514Z,68.00
2018-01-05T11:08:42.043Z,68.30
2018-01-05T11:11:09.563Z,68.70
2018-01-05T11:13:37.854Z,69.70
2018-01-05T11:16:06.119Z,68.60
2018-01-05T11:18:34.391Z,68.80
2018-01-05T11:21:02.663Z,69.10
2018-01-05T11:23:31.671Z,70.00
2018-01-05T11:25:59.939Z,70.70
2018-01-05T11:28:28.219Z,71.10
2018-01-05T11:30:56.503Z,71.20
2018-01-05T11:33:24.782Z,71.20
2018-01-05T11:35:53.059Z,71.70
2018-01-05T11:38:21.435Z,71.90
2018-01-05T11:40:50.302Z,72.00
2018-01-05T11:43:17.812Z,72.00
2018-01-05T11:45:45.330Z,71.70
2018-01-05T11:48:13.599Z,71.70
2018-01-05T11:50:41.214Z,71.70
2018-01-05T11:53:08.715Z,71.10
2018-01-05T11:55:37.739Z,70.60
2018-01-05T11:58:05.253Z,70.60
2018-01-05T12:00:32.954Z,70.40
2018-01-05T12:03:01.235Z,70.50
2018-01-05T12:05:28.739Z,70.40
2018-01-05T12:07:56.235Z,71.90
2018-01-05T12:10:24.624Z,72.40
2018-01-05T12:12:52.919Z,72.00
2018-01-05T12:15:20.428Z,72.00
2018-01-05T12:17:47.933Z,72.80
2018-01-05T12:20:15.431Z,74.00
2018-01-05T12:22:42.956Z,74.90
2018-01-05T12:25:10.467Z,75.40
2018-01-05T12:27:38.737Z,75.90
2018-01-05T12:30:06.246Z,76.00
2018-01-05T12:32:33.758Z,75.90
2018-01-05T12:35:01.323Z,75.70
2018-01-05T12:37:28.847Z,75.40
2018-01-05T12:39:56.352Z,75.20
2018-01-05T12:42:24.743Z,75.80
2018-01-05T12:44:53.007Z,75.80
2018-01-05T12:47:20.524Z,75.80
2018-01-05T12:49:48.046Z,75.80
2018-01-05T12:52:15.553Z,76.00
2018-01-05T12:54:43.077Z,76.20
2018-01-05T12:57:10.588Z,76.60
2018-01-05T12:59:38.096Z,76.50
2018-01-05T13:02:05.604Z,75.90
2018-01-05T13:04:33.287Z,75.80
2018-01-05T13:07:01.566Z,75.30
2018-01-05T13:09:29.891Z,75.10
2018-01-05T13:11:57.391Z,75.10
2018-01-05T13:14:25.766Z,75.40
2018-01-05T13:16:54.259Z,75.70
2018-01-05T13:19:22.639Z,75.90
2018-01-05T13:21:50.955Z,76.60
2018-01-05T13:24:18.596Z,76.60
2018-01-05T13:26:46.143Z,76.70
2018-01-05T13:29:13.796Z,76.80
2018-01-05T13:31:42.851Z,77.10
2018-01-05T13:34:10.354Z,77.00
2018-01-05T13:36:38.630Z,77.50
2018-01-05T13:39:06.923Z,77.50
2018-01-05T13:41:34.451Z,77.50
2018-01-05T13:44:02.719Z,77.50
2018-01-05T13:46:31.002Z,77.60
2018-01-05T13:48:59.286Z,77.50
2018-01-05T13:51:27.731Z,77.50
2018-01-05T13:53:55.260Z,77.50
2018-01-05T13:56:22.771Z,77.50
2018-01-05T13:58:51.058Z,77.30
2018-01-05T14:01:19.323Z,77.20
2018-01-05T14:03:46.830Z,77.10
2018-01-05T14:06:14.395Z,77.00
2018-01-05T14:08:41.899Z,76.90
2018-01-05T14:11:09.399Z,77.10
2018-01-05T14:13:36.902Z,77.40
2018-01-05T14:16:04.424Z,77.50
2018-01-05T14:18:31.928Z,78.10
2018-01-05T14:20:59.615Z,78.60
2018-01-05T14:23:27.878Z,79.20
2018-01-05T14:25:56.152Z,79.10
2018-01-05T14:28:24.549Z,78.30
2018-01-05T14:30:52.848Z,77.80
2018-01-05T14:33:20.356Z,77.80
2018-01-05T14:35:47.856Z,78.50
2018-01-05T14:38:15.500Z,78.20
2018-01-05T14:40:44.727Z,77.00
2018-01-05T14:43:12.294Z,77.00
2018-01-05T14:45:39.826Z,77.20
2018-01-05T14:48:07.393Z,77.30
2018-01-05T14:50:34.968Z,76.80
2018-01-05T14:53:02.532Z,76.80
2018-01-05T14:55:30.279Z,76.80
2018-01-05T14:57:57.832Z,76.90
2018-01-05T15:00:25.352Z,77.00
2018-01-05T15:02:52.854Z,77.00
2018-01-05T15:05:20.359Z,76.20
2018-01-05T15:07:48.062Z,75.60
2018-01-05T15:10:16.859Z,75.90
2018-01-05T15:12:44.370Z,75.90
2018-01-05T15:15:11.927Z,76.00
2018-01-05T15:17:39.435Z,76.10
2018-01-05T15:20:06.935Z,76.20
2018-01-05T15:22:34.514Z,76.30
2018-01-05T15:25:02.207Z,76.00
2018-01-05T15:27:30.520Z,76.60
2018-01-05T15:29:58.018Z,76.60
2018-01-05T15:32:25.830Z,76.80
2018-01-05T15:34:53.472Z,76.40
2018-01-05T15:37:21.762Z,76.30
2018-01-05T15:39:49.267Z,76.30
2018-01-05T15:42:17.531Z,75.90
2018-01-05T15:44:45.027Z,76.00
2018-01-05T15:47:13.307Z,75.60
2018-01-05T15:49:41.580Z,73.60
2018-01-05T15:52:09.844Z,73.70
2018-01-05T15:54:37.350Z,73.60
2018-01-05T15:57:04.862Z,73.80
2018-01-05T15:59:32.543Z,73.30
2018-01-05T16:02:00.922Z,72.70
2018-01-05T16:04:29.187Z,71.70
2018-01-05T16:06:57.470Z,70.00
2018-01-05T16:09:25.730Z,69.50
2018-01-05T16:11:53.416Z,69.50
2018-01-05T16:14:21.687Z,68.10
2018-01-05T16:16:49.971Z,69.20
2018-01-05T16:19:18.243Z,69.40
2018-01-05T16:21:46.511Z,69.40
2018-01-05T16:24:14.796Z,70.10
2018-01-05T16:26:43.083Z,70.60
2018-01-05T16:29:10.583Z,70.50
2018-01-05T16:31:38.085Z,71.10
2018-01-05T16:34:06.415Z,72.40
2018-01-05T16:36:33.936Z,72.40
2018-01-05T16:39:01.463Z,72.70
2018-01-05T16:41:29.020Z,73.30
2018-01-05T16:43:56.524Z,73.70
2018-01-05T16:46:24.024Z,74.00
2018-01-05T16:48:51.518Z,74.30
2018-01-05T16:51:19.795Z,74.70
2018-01-05T16:53:48.207Z,74.70
2018-01-05T16:56:15.703Z,74.90
2018-01-05T16:58:43.213Z,74.00
2018-01-05T17:01:10.734Z,72.20
2018-01-05T17:03:38.227Z,71.30
2018-01-05T17:06:05.727Z,71.40
2018-01-05T17:08:33.231Z,71.80
2018-01-05T17:11:00.737Z,72.30
2018-01-05T17:13:28.230Z,73.70
2018-01-05T17:15:56.496Z,74.60
2018-01-05T17:18:23.988Z,74.60
2018-01-05T17:20:51.479Z,74.50
2018-01-05T17:23:18.991Z,74.40
2018-01-05T17:25:47.254Z,74.50
2018-01-05T17:28:15.529Z,75.70
2018-01-05T17:30:43.814Z,75.20
2018-01-05T17:33:11.332Z,75.20
2018-01-05T17:35:38.851Z,75.30
2018-01-05T17:38:06.355Z,75.40
2018-01-05T17:40:33.853Z,75.50
2018-01-05T17:43:02.111Z,75.90
2018-01-05T17:45:29.613Z,75.90
2018-01-05T17:47:57.111Z,76.10
2018-01-05T17:50:24.987Z,76.20
2018-01-05T17:52:52.503Z,76.40
2018-01-05T17:55:19.999Z,76.70
2018-01-05T17:57:47.502Z,76.70
2018-01-05T18:00:15.017Z,76.90
2018-01-05T18:02:42.524Z,77.10
2018-01-05T18:05:10.020Z,77.30
2018-01-05T18:07:37.523Z,77.40
2018-01-05T18:10:05.803Z,77.50
2018-01-05T18:12:33.315Z,77.60
2018-01-05T18:15:00.824Z,77.60
2018-01-05T18:17:28.318Z,77.50
2018-01-05T18:19:55.818Z,77.60
2018-01-05T18:22:24.094Z,77.60
2018-01-05T18:24:52.584Z,77.60
2018-01-05T18:27:20.847Z,77.80
2018-01-05T18:29:49.235Z,78.00
2018-01-05T18:32:17.498Z,78.10
2018-01-05T18:34:46.499Z,78.10
2018-01-05T18:37:14.771Z,78.10
2018-01-05T18:39:42.265Z,78.10
2018-01-05T18:42:09.752Z,78.10
2018-01-05T18:44:37.251Z,78.80
2018-01-05T18:49:47.753Z,78.40
2018-01-05T18:52:15.275Z,78.30
2018-01-05T18:54:42.899Z,78.20
2018-01-05T18:57:10.402Z,78.80
2018-01-05T18:59:37.900Z,78.70
2018-01-05T19:02:05.399Z,78.80
2018-01-05T19:04:32.895Z,78.30
2018-01-05T19:07:01.171Z,78.10
2018-01-05T19:09:29.431Z,78.30
2018-01-05T19:11:57.692Z,78.50
2018-01-05T19:14:25.214Z,78.50
2018-01-05T19:16:53.057Z,78.70
2018-01-05T19:19:20.582Z,78.70
2018-01-05T19:21:49.010Z,79.00
2018-01-05T19:26:51.148Z,78.90
2018-01-05T19:29:18.701Z,79.00
2018-01-05T19:31:46.194Z,79.30
2018-01-05T19:34:13.696Z,79.40
2018-01-05T19:36:41.199Z,79.40
2018-01-05T19:39:08.727Z,79.50
2018-01-05T19:41:36.223Z,79.40
2018-01-05T19:44:04.495Z,79.60
2018-01-05T19:46:32.762Z,79.60
2018-01-05T19:49:01.034Z,79.60
2018-01-05T19:51:28.544Z,79.50
2018-01-05T19:53:56.371Z,79.50
2018-01-05T19:56:24.647Z,79.30
2018-01-05T19:58:52.966Z,79.20
2018-01-05T20:01:20.511Z,79.20
2018-01-05T20:03:48.378Z,79.50
2018-01-05T20:06:16.347Z,80.20
2018-01-05T20:08:44.321Z,80.70
2018-01-05T20:11:12.220Z,80.70
2018-01-05T20:13:40.081Z,80.80
2018-01-05T20:16:08.731Z,80.90
2018-01-05T20:18:36.627Z,80.90
2018-01-05T20:21:05.248Z,81.20
2018-01-05T20:23:33.360Z,81.10
2018-01-05T20:26:02.150Z,81.10
2018-01-05T20:28:30.117Z,81.40
2018-01-05T20:30:58.189Z,81.70
2018-01-05T20:33:26.159Z,81.70
2018-01-05T20:35:54.128Z,82.00
2018-01-05T20:38:22.198Z,82.30
2018-01-05T20:40:50.986Z,82.10
2018-01-05T20:43:19.061Z,82.00
2018-01-05T20:45:46.925Z,82.40
2018-01-05T20:48:14.796Z,82.30
2018-01-05T20:50:43.682Z,81.70
2018-01-05T20:53:11.759Z,81.70
2018-01-05T20:55:39.723Z,82.20
2018-01-05T20:58:07.795Z,81.10
2018-01-05T21:00:35.965Z,81.00
2018-01-05T21:03:03.837Z,80.80
2018-01-05T21:05:31.978Z,80.70
2018-01-05T21:07:59.876Z,80.40
2018-01-05T21:10:27.948Z,80.20
2018-01-05T21:12:56.020Z,80.20
2018-01-05T21:15:25.013Z,80.20
2018-01-05T21:17:52.583Z,80.20
2018-01-05T21:20:20.095Z,80.00
2018-01-05T21:22:48.354Z,80.00
2018-01-05T21:25:15.861Z,79.90
2018-01-05T21:27:43.400Z,79.80
2018-01-05T21:30:11.790Z,80.10
2018-01-05T21:32:39.295Z,80.10
2018-01-05T21:35:06.791Z,80.10
2018-01-05T21:37:35.051Z,79.80
2018-01-05T21:40:02.552Z,79.70
2018-01-05T21:42:30.063Z,79.60
2018-01-05T21:44:57.559Z,79.50
2018-01-05T21:47:25.056Z,79.60
2018-01-05T21:49:52.567Z,79.90
2018-01-05T21:52:20.836Z,80.00
2018-01-05T21:54:49.094Z,80.30
2018-01-05T21:57:16.595Z,80.30
2018-01-05T21:59:44.227Z,81.60
2018-01-05T22:02:12.487Z,83.60
2018-01-05T22:04:40.027Z,83.60
2018-01-05T22:07:07.547Z,84.50
2018-01-05T22:09:35.049Z,84.40
2018-01-05T22:12:02.540Z,84.10
2018-01-05T22:14:30.802Z,83.80
2018-01-05T22:16:59.091Z,83.10
2018-01-05T22:19:27.471Z,82.80
2018-01-05T22:21:55.734Z,82.70
2018-01-05T22:24:23.409Z,82.60
2018-01-05T22:26:51.674Z,82.20
2018-01-05T22:29:19.167Z,82.20
2018-01-05T22:31:46.680Z,83.30
2018-01-05T22:34:15.683Z,84.00
2018-01-05T22:36:43.224Z,84.80
2018-01-05T22:39:10.767Z,84.00
2018-01-05T22:41:38.259Z,83.50
2018-01-05T22:44:05.759Z,83.10
2018-01-05T22:46:33.250Z,82.70
2018-01-05T22:49:00.755Z,82.90
2018-01-05T22:51:29.022Z,82.10
2018-01-05T22:53:57.295Z,82.00
2018-01-05T22:56:25.572Z,81.60
2018-01-05T22:58:53.836Z,81.10
2018-01-05T23:01:21.326Z,81.10
2018-01-05T23:03:48.838Z,81.00
2018-01-05T23:06:16.383Z,80.80
2018-01-05T23:08:43.878Z,80.60
2018-01-05T23:11:12.135Z,80.30
2018-01-05T23:13:39.652Z,80.30
2018-01-05T23:16:07.154Z,80.00
2018-01-05T23:18:34.651Z,79.70
2018-01-05T23:21:02.313Z,79.70
2018-01-05T23:23:30.789Z,79.60
2018-01-05T23:25:58.296Z,79.50
2018-01-05T23:28:25.792Z,79.10
2018-01-05T23:30:54.058Z,79.20
2018-01-05T23:33:21.556Z,79.10
2018-01-05T23:35:49.051Z,79.20
2018-01-05T23:38:16.658Z,79.10
2018-01-05T23:40:44.159Z,79.10
2018-01-05T23:43:11.654Z,78.80
2018-01-05T23:45:39.938Z,79.70
2018-01-05T23:48:08.216Z,79.80
2018-01-05T23:50:36.478Z,80.00
2018-01-05T23:53:03.979Z,80.00
2018-01-05T23:55:31.471Z,80.50
2018-01-05T23:57:58.965Z,80.40
